Time;durP1;ratioP1;P1;durP2;ratioP2;P2;SDS_P1;SDS_P2;PMS_P1;PMS_P2;Temp;Humidity;BMP_temperature;BMP_pressure;BME280_temperature;BME280_humidity;BME280_pressure;Samples;Min_cycle;Max_cycle;Signal;HPM_P1;HPM_P2
2023/05/23 00:02:01;;;;;;;;;;;;;;;11.71;65.56;101309.59;108728;1259;67127;-82
2023/05/23 00:04:28;;;;;;;;;;;;;;;11.69;65.55;101316.21;108571;1259;124853;-82
2023/05/23 00:06:55;;;;;;;;;;;;;;;11.66;65.63;101314.36;108729;1260;60154;-83
2023/05/23 00:09:22;;;;;;;;;;;;;;;11.64;65.64;101311.30;108631;1263;124340;-82
2023/05/23 00:11:49;;;;;;;;;;;;;;;11.62;65.74;101308.08;108718;1263;71717;-83
2023/05/23 00:14:16;;;;;;;;;;;;;;;11.59;65.81;101306.76;108626;1262;64731;-83
2023/05/23 00:16:43;;;;;;;;;;;;;;;11.57;65.82;101307.59;108473;1262;124902;-83
2023/05/23 00:19:10;;;;;;;;;;;;;;;11.55;65.95;101302.42;108528;1263;57497;-83
2023/05/23 00:21:37;;;;;;;;;;;;;;;11.51;65.97;101302.48;108493;1260;124225;-83
2023/05/23 00:24:06;;;;;;;;;;;;;;;11.46;66.04;101300.77;108680;1260;73503;-82
2023/05/23 00:26:33;;;;;;;;;;;;;;;11.41;66.05;101299.57;108524;1260;67089;-83
2023/05/23 00:29:00;;;;;;;;;;;;;;;11.37;66.15;101297.31;108499;1262;123403;-82
2023/05/23 00:31:27;;;;;;;;;;;;;;;11.33;66.24;101297.92;108551;1262;58318;-82
2023/05/23 00:33:54;;;;;;;;;;;;;;;11.28;66.31;101294.61;108468;1262;125144;-82
2023/05/23 00:36:21;;;;;;;;;;;;;;;11.24;66.43;101288.67;108626;1260;73110;-80
2023/05/23 00:38:48;;;;;;;;;;;;;;;11.20;66.40;101287.30;108553;1260;124367;-83
2023/05/23 00:41:17;;;;;;;;;;;;;;;11.16;66.59;101285.10;108579;1262;70879;-82
2023/05/23 00:43:44;;;;;;;;;;;;;;;11.12;66.64;101284.96;108475;1261;57689;-82
2023/05/23 00:46:11;;;;;;;;;;;;;;;11.08;66.70;101284.66;108478;1262;124218;-82
2023/05/23 00:48:38;;;;;;;;;;;;;;;11.03;66.80;101282.05;108422;1261;73099;-81
2023/05/23 00:51:05;;;;;;;;;;;;;;;10.98;66.91;101282.59;108381;1265;124220;-83
2023/05/23 00:53:32;;;;;;;;;;;;;;;10.92;67.01;101276.77;108598;1262;72202;-82
2023/05/23 00:55:59;;;;;;;;;;;;;;;10.88;67.16;101274.89;108661;1261;58174;-82
2023/05/23 00:58:26;;;;;;;;;;;;;;;10.84;67.25;101277.58;108407;1260;123667;-82
2023/05/23 01:00:54;;;;;;;;;;;;;;;10.79;67.41;101276.73;108579;1264;71808;-82
2023/05/23 01:03:22;;;;;;;;;;;;;;;10.75;67.48;101275.20;108454;1262;125098;-82
2023/05/23 01:05:50;;;;;;;;;;;;;;;10.72;67.59;101278.43;108621;1262;72702;-81
2023/05/23 01:08:17;;;;;;;;;;;;;;;10.69;67.78;101279.55;108472;1262;58534;-81
2023/05/23 01:10:44;;;;;;;;;;;;;;;10.65;67.90;101278.90;108372;1261;124849;-81
2023/05/23 01:13:27;;;;;;;;;;;;;;;10.63;67.95;101279.34;108666;1259;73627;-80
2023/05/23 01:15:58;;;;;;;;;;;;;;;10.59;68.03;101275.34;108441;1264;123755;-80
2023/05/23 01:18:29;;;;;;;;;;;;;;;10.56;68.17;101270.33;108446;1262;70130;-80
2023/05/23 01:20:57;;;;;;;;;;;;;;;10.52;68.28;101273.55;108493;1262;125445;-80
2023/05/23 01:23:29;;;;;;;;;;;;;;;10.49;68.37;101275.39;108578;1260;58645;-80
2023/05/23 01:26:02;;;;;;;;;;;;;;;10.47;68.48;101272.50;108599;1262;73579;-80
2023/05/23 01:28:30;;;;;;;;;;;;;;;10.45;68.58;101272.77;108560;1262;124635;-80
2023/05/23 01:30:57;;;;;;;;;;;;;;;10.42;68.61;101269.88;108615;1260;71420;-80
2023/05/23 01:33:25;;;;;;;;;;;;;;;10.39;68.71;101270.12;108411;1262;125857;-80
2023/05/23 01:35:52;;;;;;;;;;;;;;;10.36;68.67;101267.05;108608;1263;59129;-80
2023/05/23 01:38:19;;;;;;;;;;;;;;;10.34;68.84;101264.50;108453;1265;72547;-80
2023/05/23 01:40:46;;;;;;;;;;;;;;;10.33;68.78;101265.71;108381;1260;125297;-81
2023/05/23 01:43:13;;;;;;;;;;;;;;;10.33;69.00;101262.36;108603;1262;73472;-81
2023/05/23 01:45:39;;;;;;;;;;;;;;;10.31;69.02;101260.58;108352;1260;125174;-81
2023/05/23 01:48:06;;;;;;;;;;;;;;;10.30;69.08;101255.47;108482;1261;58765;-81
2023/05/23 01:50:33;;;;;;;;;;;;;;;10.29;69.22;101251.52;108584;1260;74271;-81
2023/05/23 01:53:00;;;;;;;;;;;;;;;10.31;69.29;101251.61;108470;1262;125189;-81
2023/05/23 01:55:27;;;;;;;;;;;;;;;10.32;69.26;101250.93;108546;1262;73179;-80
2023/05/23 01:57:54;;;;;;;;;;;;;;;10.32;69.35;101253.02;108470;1259;124948;-80
2023/05/23 02:00:21;;;;;;;;;;;;;;;10.34;69.32;101251.70;108577;1259;58915;-80
2023/05/23 02:02:48;;;;;;;;;;;;;;;10.34;69.47;101250.13;108508;1262;125096;-81
2023/05/23 02:05:15;;;;;;;;;;;;;;;10.37;69.41;101250.92;108661;1262;67546;-81
2023/05/23 02:07:42;;;;;;;;;;;;;;;10.37;69.46;101252.34;108595;1264;72918;-81
2023/05/23 02:10:09;;;;;;;;;;;;;;;10.38;69.51;101250.60;108585;1259;124958;-81
2023/05/23 02:12:36;;;;;;;;;;;;;;;10.40;69.48;101255.07;108643;1260;58806;-81
2023/05/23 02:15:03;;;;;;;;;;;;;;;10.41;69.47;101256.15;108644;1262;125393;-81
2023/05/23 02:17:30;;;;;;;;;;;;;;;10.43;69.48;101259.37;108636;1262;65936;-81
2023/05/23 02:19:57;;;;;;;;;;;;;;;10.44;69.39;101260.98;108630;1261;71465;-81
2023/05/23 02:22:27;;;;;;;;;;;;;;;10.46;69.36;101255.79;108418;1260;126199;-81
2023/05/23 02:24:54;;;;;;;;;;;;;;;10.47;69.43;101252.16;108566;1264;60527;-80
2023/05/23 02:27:20;;;;;;;;;;;;;;;10.47;69.39;101250.04;108342;1260;124813;-81
2023/05/23 02:29:47;;;;;;;;;;;;;;;10.48;69.40;101251.48;108378;1264;66759;-82
2023/05/23 02:32:14;;;;;;;;;;;;;;;10.49;69.44;101249.05;108496;1262;71340;-81
2023/05/23 02:34:41;;;;;;;;;;;;;;;10.50;69.33;101249.45;108348;1261;124696;-82
2023/05/23 02:37:08;;;;;;;;;;;;;;;10.53;69.54;101244.79;108475;1264;58615;-82
2023/05/23 02:39:35;;;;;;;;;;;;;;;10.55;69.37;101242.23;108348;1264;125454;-82
2023/05/23 02:42:02;;;;;;;;;;;;;;;10.58;69.43;101240.92;108524;1262;66268;-81
2023/05/23 02:44:29;;;;;;;;;;;;;;;10.61;69.44;101241.57;108534;1260;72644;-81
2023/05/23 02:46:56;;;;;;;;;;;;;;;10.67;69.43;101242.64;108560;1262;124605;-81
2023/05/23 02:49:22;;;;;;;;;;;;;;;10.72;69.38;101238.58;108558;1262;58621;-81
2023/05/23 02:51:49;;;;;;;;;;;;;;;10.79;69.48;101238.77;108565;1261;124432;-82
2023/05/23 02:54:16;;;;;;;;;;;;;;;10.84;69.41;101237.91;108580;1260;66010;-81
2023/05/23 02:56:44;;;;;;;;;;;;;;;10.91;69.41;101239.00;108507;1264;124813;-81
2023/05/23 02:59:11;;;;;;;;;;;;;;;10.99;69.37;101233.08;108585;1262;59032;-81
2023/05/23 03:01:38;;;;;;;;;;;;;;;11.05;69.37;101230.50;108576;1260;60264;-81
2023/05/23 03:04:05;;;;;;;;;;;;;;;11.13;69.35;101230.91;108428;1261;124224;-81
2023/05/23 03:06:33;;;;;;;;;;;;;;;11.22;69.31;101227.65;108615;1262;65572;-82
2023/05/23 03:09:00;;;;;;;;;;;;;;;11.32;69.23;101225.30;108520;1260;124964;-81
2023/05/23 03:11:28;;;;;;;;;;;;;;;11.41;69.14;101220.14;108543;1261;58620;-82
2023/05/23 03:13:55;;;;;;;;;;;;;;;11.53;69.10;101220.66;108423;1267;61142;-82
2023/05/23 03:16:23;;;;;;;;;;;;;;;11.65;68.97;101220.99;108549;1262;124334;-82
2023/05/23 03:18:49;;;;;;;;;;;;;;;11.79;68.96;101215.74;108553;1260;66549;-82
2023/05/23 03:21:16;;;;;;;;;;;;;;;11.94;68.82;101217.77;108510;1260;123871;-81
2023/05/23 03:23:43;;;;;;;;;;;;;;;12.12;68.63;101220.35;108592;1265;58695;-82
2023/05/23 03:26:10;;;;;;;;;;;;;;;12.32;68.46;101218.75;108704;1262;59900;-82
2023/05/23 03:28:37;;;;;;;;;;;;;;;12.54;68.26;101213.16;108560;1263;123656;-82
2023/05/23 03:31:04;;;;;;;;;;;;;;;12.85;68.18;101215.80;108482;1260;65800;-82
2023/05/23 03:33:31;;;;;;;;;;;;;;;13.18;67.91;101209.15;108404;1262;123550;-82
2023/05/23 03:35:58;;;;;;;;;;;;;;;13.60;67.71;101208.98;108618;1261;58856;-81
2023/05/23 03:38:26;;;;;;;;;;;;;;;14.12;67.41;101207.30;108689;1260;60384;-82
2023/05/23 03:40:53;;;;;;;;;;;;;;;15.22;68.06;101206.55;108462;1261;124224;-82
2023/05/23 03:43:20;;;;;;;;;;;;;;;16.68;67.37;101200.81;108687;1261;65791;-81
2023/05/23 03:45:46;;;;;;;;;;;;;;;18.18;65.99;101194.35;108541;1262;124272;-81
2023/05/23 03:48:13;;;;;;;;;;;;;;;19.65;64.29;101188.91;108672;1260;58341;-82
2023/05/23 03:50:40;;;;;;;;;;;;;;;21.09;62.34;101183.63;108629;1261;58828;-82
2023/05/23 03:53:07;;;;;;;;;;;;;;;22.42;60.35;101174.80;108612;1260;73030;-82
2023/05/23 03:55:34;;;;;;;;;;;;;;;23.63;58.21;101177.85;108574;1261;67173;-82
2023/05/23 03:58:01;;;;;;;;;;;;;;;24.68;56.16;101173.90;108455;1264;124147;-82
2023/05/23 04:00:28;;;;;;;;;;;;;;;25.66;54.51;101173.08;108644;1260;58589;-81
2023/05/23 04:02:56;;;;;;;;;;;;;;;26.69;52.76;101172.23;108542;1261;124469;-82
2023/05/23 04:05:23;;;;;;;;;;;;;;;27.66;50.93;101173.17;108587;1263;73831;-82
2023/05/23 04:07:50;;;;;;;;;;;;;;;28.51;49.20;101171.86;108432;1261;66943;-83
2023/05/23 04:10:17;;;;;;;;;;;;;;;29.25;47.64;101169.14;108423;1260;124540;-88
2023/05/23 04:12:44;;;;;;;;;;;;;;;29.92;46.21;101164.52;108496;1265;58556;-83
2023/05/23 04:15:11;;;;;;;;;;;;;;;30.50;44.77;101164.36;108476;1265;124814;-86
2023/05/23 04:17:39;;;;;;;;;;;;;;;30.85;43.36;101161.98;108568;1265;67720;-87
2023/05/23 04:20:08;;;;;;;;;;;;;;;30.92;42.04;101161.08;108593;1261;59192;-86
2023/05/23 04:22:35;;;;;;;;;;;;;;;30.82;41.17;101156.13;108522;1265;123844;-86
2023/05/23 04:25:02;;;;;;;;;;;;;;;30.63;40.42;101155.16;108516;1262;60321;-87
2023/05/23 04:27:30;;;;;;;;;;;;;;;30.66;40.17;101153.52;108485;1262;123830;-88
2023/05/23 04:29:59;;;;;;;;;;;;;;;30.73;39.42;101155.18;108490;1262;65171;-87
2023/05/23 04:32:26;;;;;;;;;;;;;;;30.54;38.89;101153.65;108634;1264;58937;-86
2023/05/23 04:34:53;;;;;;;;;;;;;;;30.33;38.50;101151.80;108383;1276;124423;-85
2023/05/23 04:37:24;;;;;;;;;;;;;;;30.22;38.25;101157.08;108646;1259;58532;-86
2023/05/23 04:39:51;;;;;;;;;;;;;;;30.42;38.16;101156.95;108512;1261;123870;-85
2023/05/23 04:42:23;;;;;;;;;;;;;;;30.96;38.07;101161.03;108613;1260;65586;-86
2023/05/23 04:44:57;;;;;;;;;;;;;;;31.79;37.57;101155.34;108419;1260;124403;-88
2023/05/23 04:47:26;;;;;;;;;;;;;;;32.72;36.88;101155.16;108544;1261;65649;-87
2023/05/23 04:49:54;;;;;;;;;;;;;;;33.54;35.93;101156.75;108595;1262;58207;-86
2023/05/23 04:52:22;;;;;;;;;;;;;;;34.15;35.13;101153.98;108499;1261;124405;-88
2023/05/23 04:54:52;;;;;;;;;;;;;;;34.77;34.36;101152.67;108473;1266;65749;-86
2023/05/23 04:57:20;;;;;;;;;;;;;;;35.33;33.74;101150.68;108496;1263;124095;-87
2023/05/23 04:59:47;;;;;;;;;;;;;;;35.87;32.98;101148.89;108727;1261;62800;-93
2023/05/23 05:05:36;;;;;;;;;;;;;;;37.31;31.65;101144.84;108781;1261;58547;-82
2023/05/23 05:08:03;;;;;;;;;;;;;;;37.97;30.82;101139.61;108742;1259;65514;-86
2023/05/23 05:10:30;;;;;;;;;;;;;;;38.33;30.17;101140.73;108601;1261;124157;-88
2023/05/23 05:12:57;;;;;;;;;;;;;;;38.54;29.70;101132.15;108525;1264;64681;-86
2023/05/23 05:15:24;;;;;;;;;;;;;;;38.65;29.33;101129.34;108550;1263;125738;-88
2023/05/23 05:17:51;;;;;;;;;;;;;;;38.69;28.86;101127.49;108713;1263;58471;-87
2023/05/23 05:20:18;;;;;;;;;;;;;;;38.64;28.58;101130.16;108623;1265;65301;-84
2023/05/23 05:22:45;;;;;;;;;;;;;;;38.66;28.39;101128.54;108591;1261;125644;-83
2023/05/23 05:25:17;;;;;;;;;;;;;;;38.83;28.10;101131.27;108535;1260;64161;-90
2023/05/23 05:27:44;;;;;;;;;;;;;;;38.81;27.83;101130.54;107582;1260;124398;-93
2023/05/23 05:30:12;;;;;;;;;;;;;;;38.69;27.71;101129.40;107641;1264;59372;-87
2023/05/23 05:32:39;;;;;;;;;;;;;;;38.78;27.56;101132.02;107621;1262;64030;-87
2023/05/23 05:35:14;;;;;;;;;;;;;;;38.55;26.87;101132.20;107469;1261;124083;-87
2023/05/23 05:37:55;;;;;;;;;;;;;;;36.89;26.56;101128.38;107567;1264;62703;-87
2023/05/23 05:40:36;;;;;;;;;;;;;;;34.86;27.11;101127.50;107414;1260;124330;-86
2023/05/23 05:43:02;;;;;;;;;;;;;;;33.09;27.78;101127.34;108586;1261;58868;-87
2023/05/23 05:45:30;;;;;;;;;;;;;;;31.63;28.67;101126.68;108620;1261;125389;-86
2023/05/23 05:48:00;;;;;;;;;;;;;;;30.41;29.60;101126.76;108524;1259;58600;-88
2023/05/23 05:50:26;;;;;;;;;;;;;;;29.33;30.48;101124.48;108609;1261;62706;-88
2023/05/23 05:52:53;;;;;;;;;;;;;;;28.44;31.46;101126.65;108569;1260;124467;-91
2023/05/23 05:55:21;;;;;;;;;;;;;;;27.67;32.16;101130.39;108682;1261;58838;-86
2023/05/23 05:57:48;;;;;;;;;;;;;;;27.06;33.04;101126.27;108580;1261;125293;-85
2023/05/23 06:00:17;;;;;;;;;;;;;;;26.57;33.46;101124.95;108546;1259;65905;-86
2023/05/23 06:02:47;;;;;;;;;;;;;;;26.21;34.25;101130.67;108526;1267;71102;-89
2023/05/23 06:05:17;;;;;;;;;;;;;;;25.86;35.05;101127.34;108732;1260;58501;-88
2023/05/23 06:07:45;;;;;;;;;;;;;;;25.38;35.80;101122.56;108747;1263;59222;-88
2023/05/23 06:10:12;;;;;;;;;;;;;;;24.97;36.73;101122.49;108574;1259;124578;-88
2023/05/23 06:12:39;;;;;;;;;;;;;;;24.76;37.14;101121.45;108688;1260;65738;-87
2023/05/23 06:15:06;;;;;;;;;;;;;;;24.54;37.44;101115.96;108616;1262;123931;-85
2023/05/23 06:17:33;;;;;;;;;;;;;;;24.39;37.96;101114.00;108614;1261;58520;-85
2023/05/23 06:20:00;;;;;;;;;;;;;;;24.33;38.28;101111.10;108745;1263;59246;-84
2023/05/23 06:22:27;;;;;;;;;;;;;;;24.27;38.39;101113.95;108592;1262;125861;-84
2023/05/23 06:24:54;;;;;;;;;;;;;;;24.22;38.72;101113.37;108730;1259;65862;-85
2023/05/23 06:27:21;;;;;;;;;;;;;;;24.18;38.73;101114.73;108644;1263;124955;-85
2023/05/23 06:29:48;;;;;;;;;;;;;;;24.14;38.74;101112.88;108652;1261;58566;-85
2023/05/23 06:32:15;;;;;;;;;;;;;;;24.10;38.79;101113.86;108683;1260;60128;-85
2023/05/23 06:34:42;;;;;;;;;;;;;;;24.09;38.73;101111.38;108562;1261;123753;-85
2023/05/23 06:37:09;;;;;;;;;;;;;;;24.10;38.95;101110.84;108635;1261;65778;-85
2023/05/23 06:39:37;;;;;;;;;;;;;;;24.10;39.11;101102.75;108497;1260;124347;-85
2023/05/23 06:42:04;;;;;;;;;;;;;;;24.08;39.07;101102.98;108651;1260;58624;-85
2023/05/23 06:44:31;;;;;;;;;;;;;;;24.06;39.07;101106.60;108586;1260;60340;-85
2023/05/23 06:46:58;;;;;;;;;;;;;;;24.05;39.35;101100.56;108482;1263;124356;-85
2023/05/23 06:49:25;;;;;;;;;;;;;;;24.05;39.42;101098.04;108606;1263;65569;-85
2023/05/23 06:51:52;;;;;;;;;;;;;;;24.09;39.39;101099.37;108635;1260;124052;-87
2023/05/23 06:54:19;;;;;;;;;;;;;;;24.15;39.45;101094.57;108695;1260;58765;-92
2023/05/23 06:56:46;;;;;;;;;;;;;;;24.17;39.43;101096.65;108637;1261;59842;-86
2023/05/23 06:59:13;;;;;;;;;;;;;;;24.19;39.45;101096.25;108744;1260;73901;-86
2023/05/23 07:01:40;;;;;;;;;;;;;;;24.23;39.51;101091.11;108748;1260;67068;-86
2023/05/23 07:04:06;;;;;;;;;;;;;;;24.29;39.62;101087.56;108596;1260;123971;-87
2023/05/23 07:06:35;;;;;;;;;;;;;;;24.38;39.63;101088.56;108677;1259;58378;-85
2023/05/23 07:09:02;;;;;;;;;;;;;;;24.43;39.45;101087.54;108593;1260;124495;-86
2023/05/23 07:11:29;;;;;;;;;;;;;;;24.44;39.63;101086.06;108695;1263;73871;-84
2023/05/23 07:13:56;;;;;;;;;;;;;;;24.51;39.55;101088.58;108670;1263;67296;-89
2023/05/23 07:16:23;;;;;;;;;;;;;;;24.57;39.52;101084.85;108438;1260;123746;-92
2023/05/23 07:18:50;;;;;;;;;;;;;;;24.60;39.57;101086.00;108564;1272;58613;-91
2023/05/23 07:21:17;;;;;;;;;;;;;;;24.67;39.26;101083.16;108521;1259;125761;-91
2023/05/23 07:23:44;;;;;;;;;;;;;;;24.73;39.29;101078.67;108678;1260;74365;-91
2023/05/23 07:26:11;;;;;;;;;;;;;;;24.79;39.29;101077.23;108491;1260;66824;-91
2023/05/23 07:28:38;;;;;;;;;;;;;;;24.80;39.19;101079.70;108387;1260;124349;-90
2023/05/23 07:31:06;;;;;;;;;;;;;;;24.78;39.03;101076.73;108583;1267;58650;-89
2023/05/23 07:33:33;;;;;;;;;;;;;;;24.80;38.79;101078.27;108551;1264;124870;-90
2023/05/23 07:36:00;;;;;;;;;;;;;;;24.85;38.76;101075.98;108657;1260;71954;-90
2023/05/23 07:38:27;;;;;;;;;;;;;;;24.86;38.91;101076.86;108695;1260;66749;-89
2023/05/23 07:40:54;;;;;;;;;;;;;;;24.89;38.86;101078.55;108562;1260;124517;-87
2023/05/23 07:43:21;;;;;;;;;;;;;;;24.92;38.75;101077.02;108639;1260;58479;-89
2023/05/23 07:45:48;;;;;;;;;;;;;;;24.96;38.35;101076.73;108529;1264;124881;-82
2023/05/23 07:48:15;;;;;;;;;;;;;;;24.92;38.33;101074.71;108592;1260;74727;-82
2023/05/23 07:50:42;;;;;;;;;;;;;;;24.93;38.20;101075.42;108603;1261;65788;-82
2023/05/23 07:53:09;;;;;;;;;;;;;;;24.95;37.81;101073.90;108488;1259;124059;-81
2023/05/23 07:55:36;;;;;;;;;;;;;;;24.95;37.70;101074.42;108624;1260;58417;-84
2023/05/23 07:58:02;;;;;;;;;;;;;;;24.93;37.36;101071.80;108429;1259;124844;-82
2023/05/23 08:00:30;;;;;;;;;;;;;;;24.92;37.27;101070.92;108686;1259;73815;-82
2023/05/23 08:02:57;;;;;;;;;;;;;;;24.97;37.44;101068.27;108517;1260;124494;-82
2023/05/23 08:05:24;;;;;;;;;;;;;;;25.06;37.38;101065.84;108645;1260;71601;-82
2023/05/23 08:07:53;;;;;;;;;;;;;;;25.17;37.23;101065.70;108535;1260;58532;-82
2023/05/23 08:10:20;;;;;;;;;;;;;;;25.27;37.06;101061.27;108420;1260;124337;-82
2023/05/23 08:12:46;;;;;;;;;;;;;;;25.35;37.02;101062.64;108571;1260;74903;-82
2023/05/23 08:15:14;;;;;;;;;;;;;;;25.45;36.78;101061.44;108411;1270;124965;-82
2023/05/23 08:17:40;;;;;;;;;;;;;;;25.54;36.73;101058.27;108567;1260;72744;-81
2023/05/23 08:20:08;;;;;;;;;;;;;;;25.60;36.70;101057.89;108568;1260;58471;-82
2023/05/23 08:22:35;;;;;;;;;;;;;;;25.68;36.58;101059.45;108569;1260;125358;-82
2023/05/23 08:25:03;;;;;;;;;;;;;;;25.74;36.47;101059.26;108646;1259;73896;-82
2023/05/23 08:27:30;;;;;;;;;;;;;;;25.78;36.49;101057.83;108471;1260;125030;-82
2023/05/23 08:29:57;;;;;;;;;;;;;;;25.77;36.34;101055.91;108575;1260;71506;-82
2023/05/23 08:32:24;;;;;;;;;;;;;;;25.77;36.36;101053.02;108711;1259;58614;-82
2023/05/23 08:34:51;;;;;;;;;;;;;;;25.87;36.22;101055.75;108648;1259;124847;-82
2023/05/23 08:37:17;;;;;;;;;;;;;;;25.98;36.34;101056.86;108594;1265;73035;-82
2023/05/23 08:39:44;;;;;;;;;;;;;;;26.12;36.18;101051.49;108641;1260;123937;-82
2023/05/23 08:42:11;;;;;;;;;;;;;;;26.26;35.92;101055.52;108693;1263;71920;-82
2023/05/23 08:44:39;;;;;;;;;;;;;;;26.40;35.76;101058.09;108692;1259;58539;-82
2023/05/23 08:47:06;;;;;;;;;;;;;;;26.55;35.48;101058.78;108621;1261;124331;-82
2023/05/23 08:49:33;;;;;;;;;;;;;;;26.64;35.04;101053.83;108686;1259;73641;-82
2023/05/23 08:52:01;;;;;;;;;;;;;;;26.80;35.21;101055.75;108728;1258;124728;-81
2023/05/23 08:54:28;;;;;;;;;;;;;;;26.94;34.59;101058.62;108726;1259;72048;-82
2023/05/23 08:56:55;;;;;;;;;;;;;;;27.00;34.09;101057.86;108515;1259;124875;-82
2023/05/23 08:59:22;;;;;;;;;;;;;;;26.99;33.91;101058.64;108720;1259;60105;-82
2023/05/23 09:01:49;;;;;;;;;;;;;;;27.09;33.79;101060.38;108684;1259;73864;-88
2023/05/23 09:04:16;;;;;;;;;;;;;;;27.19;33.85;101056.02;108618;1260;125463;-88
2023/05/23 09:06:43;;;;;;;;;;;;;;;27.30;34.08;101054.00;108609;1262;72689;-87
2023/05/23 09:09:09;;;;;;;;;;;;;;;27.41;33.84;101049.61;108479;1259;124330;-82
2023/05/23 09:11:40;;;;;;;;;;;;;;;27.37;33.48;101051.22;108720;1260;60186;-82
2023/05/23 09:14:10;;;;;;;;;;;;;;;27.30;33.59;101055.24;108514;1265;74426;-82
2023/05/23 09:16:37;;;;;;;;;;;;;;;27.30;33.61;101051.86;108620;1258;168174;-82
2023/05/23 09:19:10;;;;;;;;;;;;;;;27.19;33.59;101056.39;108709;1263;72863;-82
2023/05/23 09:21:41;;;;;;;;;;;;;;;27.15;33.53;101055.48;108546;1260;124058;-82
2023/05/23 09:24:08;;;;;;;;;;;;;;;27.12;33.56;101050.02;108742;1259;59957;-82
2023/05/23 09:26:35;;;;;;;;;;;;;;;27.06;33.45;101051.34;108805;1259;73866;-83
2023/05/23 09:29:04;;;;;;;;;;;;;;;26.95;32.97;101047.97;108687;1259;124331;-83
2023/05/23 09:31:31;;;;;;;;;;;;;;;26.71;32.66;101044.75;108647;1259;71347;-83
2023/05/23 09:34:00;;;;;;;;;;;;;;;26.59;33.15;101044.64;108597;1259;124485;-83
2023/05/23 09:36:33;;;;;;;;;;;;;;;26.57;33.08;101041.27;108691;1260;61326;-83
2023/05/23 09:39:04;;;;;;;;;;;;;;;26.53;32.85;101041.02;108472;1264;123795;-82
2023/05/23 09:41:34;;;;;;;;;;;;;;;26.49;32.85;101042.11;108266;1259;282051;-82
2023/05/23 09:44:04;;;;;;;;;;;;;;;26.48;32.92;101040.67;108602;1262;73093;-82
2023/05/23 09:46:33;;;;;;;;;;;;;;;26.50;33.10;101037.73;108549;1259;125182;-82
2023/05/23 09:49:00;;;;;;;;;;;;;;;26.54;33.24;101035.98;108606;1260;59738;-82
2023/05/23 09:51:27;;;;;;;;;;;;;;;26.62;33.45;101036.80;108650;1259;123997;-82
2023/05/23 09:53:55;;;;;;;;;;;;;;;26.74;33.60;101036.52;108617;1259;67129;-82
2023/05/23 09:56:22;;;;;;;;;;;;;;;26.85;33.42;101036.98;108662;1259;72697;-82
2023/05/23 09:58:49;;;;;;;;;;;;;;;26.90;33.47;101030.33;108548;1259;124362;-82
2023/05/23 10:01:16;;;;;;;;;;;;;;;26.99;33.42;101031.45;108622;1259;58506;-82
2023/05/23 10:03:50;;;;;;;;;;;;;;;27.05;33.17;101031.73;108506;1259;124410;-82
2023/05/23 10:06:36;;;;;;;;;;;;;;;27.10;32.81;101030.27;108812;1258;67105;-82
2023/05/23 10:09:03;;;;;;;;;;;;;;;27.12;32.67;101029.66;108509;1259;124521;-81
2023/05/23 10:11:33;;;;;;;;;;;;;;;27.11;32.65;101028.44;108557;1259;58619;-81
2023/05/23 10:14:20;;;;;;;;;;;;;;;27.12;32.34;101023.53;108565;1273;58958;-82
2023/05/23 10:16:59;;;;;;;;;;;;;;;27.01;32.42;101021.98;108658;1258;124811;-82
2023/05/23 10:19:47;;;;;;;;;;;;;;;26.94;32.80;101024.95;108712;1258;66916;-82
2023/05/23 10:22:15;;;;;;;;;;;;;;;26.94;32.86;101029.63;108449;1259;124027;-82
2023/05/23 10:24:43;;;;;;;;;;;;;;;26.91;32.48;101022.73;108616;1260;59209;-82
2023/05/23 10:27:10;;;;;;;;;;;;;;;26.85;32.30;101022.21;108621;1257;124520;-82
2023/05/23 10:29:37;;;;;;;;;;;;;;;26.98;32.57;101021.20;108706;1261;74048;-82
2023/05/23 10:32:04;;;;;;;;;;;;;;;27.18;32.61;101016.63;108685;1259;67848;-82
2023/05/23 10:34:33;;;;;;;;;;;;;;;27.28;32.26;101019.30;108635;1258;124296;-82
2023/05/23 10:37:06;;;;;;;;;;;;;;;27.37;32.27;101023.08;108576;1259;58792;-82
2023/05/23 10:39:40;;;;;;;;;;;;;;;27.48;31.95;101018.70;108658;1259;123706;-82
2023/05/23 10:42:15;;;;;;;;;;;;;;;27.60;31.93;101018.36;108735;1259;72539;-82
2023/05/23 10:44:41;;;;;;;;;;;;;;;27.59;31.68;101013.37;108660;1259;65791;-82
2023/05/23 10:47:08;;;;;;;;;;;;;;;27.54;31.68;101018.25;108692;1257;124250;-82
2023/05/23 10:49:39;;;;;;;;;;;;;;;27.58;31.55;101014.31;108711;1259;58388;-81
2023/05/23 10:52:06;;;;;;;;;;;;;;;27.63;31.67;101014.09;108649;1259;124318;-82
2023/05/23 10:54:33;;;;;;;;;;;;;;;27.74;31.68;101014.35;108657;1259;72964;-82
2023/05/23 10:57:03;;;;;;;;;;;;;;;27.88;31.46;101015.58;108466;1259;125287;-82
2023/05/23 10:59:32;;;;;;;;;;;;;;;27.99;31.07;101017.66;108583;1275;73141;-82
2023/05/23 11:02:00;;;;;;;;;;;;;;;28.05;30.89;101014.33;108606;1259;58423;-83
2023/05/23 11:04:30;;;;;;;;;;;;;;;28.08;30.75;101010.20;108672;1261;124224;-82
2023/05/23 11:10:12;;;;;;;;;;;;;;;28.03;30.51;101006.27;108634;1263;125034;-82
2023/05/23 11:12:42;;;;;;;;;;;;;;;27.77;30.36;101004.66;108635;1259;73048;-83
2023/05/23 11:15:43;;;;;;;;;;;;;;;27.63;30.62;101011.05;108698;1259;58407;-83
2023/05/23 11:18:18;;;;;;;;;;;;;;;27.64;30.69;101009.52;108625;1259;59347;-82
2023/05/23 11:20:56;;;;;;;;;;;;;;;27.79;30.68;101007.27;108527;1275;125155;-82
2023/05/23 11:23:23;;;;;;;;;;;;;;;27.98;30.70;101005.06;108567;1259;65842;-81
2023/05/23 11:25:57;;;;;;;;;;;;;;;28.13;30.25;100997.58;108608;1259;71535;-82
2023/05/23 11:28:25;;;;;;;;;;;;;;;28.21;30.32;100995.04;108478;1274;123738;-81
2023/05/23 11:30:52;;;;;;;;;;;;;;;28.35;30.63;100998.38;108629;1261;60205;-81
2023/05/23 11:33:19;;;;;;;;;;;;;;;28.49;30.37;100998.64;108464;1259;123871;-82
2023/05/23 11:35:47;;;;;;;;;;;;;;;28.51;29.97;100999.27;108663;1259;66535;-82
2023/05/23 11:38:24;;;;;;;;;;;;;;;28.48;30.04;101000.84;108609;1263;72524;-82
2023/05/23 11:40:51;;;;;;;;;;;;;;;28.58;30.13;101004.42;108621;1260;126102;-82
2023/05/23 11:43:18;;;;;;;;;;;;;;;28.63;29.83;101001.30;108531;1264;59223;-82
2023/05/23 11:45:49;;;;;;;;;;;;;;;28.50;29.72;100999.67;108564;1259;126029;-82
2023/05/23 11:48:16;;;;;;;;;;;;;;;28.44;29.96;100994.00;108696;1259;58995;-82
2023/05/23 11:51:07;;;;;;;;;;;;;;;28.48;29.97;100999.77;108575;1259;124302;-84
2023/05/23 11:53:34;;;;;;;;;;;;;;;28.59;29.90;101002.20;108575;1259;58574;-82
2023/05/23 11:56:01;;;;;;;;;;;;;;;28.63;29.89;101005.05;108782;1258;59918;-82
2023/05/23 11:58:29;;;;;;;;;;;;;;;28.60;29.68;101003.05;108551;1259;124430;-79
2023/05/23 12:01:08;;;;;;;;;;;;;;;28.44;29.49;101003.20;108686;1259;67114;-79
2023/05/23 12:03:48;;;;;;;;;;;;;;;28.27;29.58;101000.55;108589;1259;125196;-79
2023/05/23 12:06:15;;;;;;;;;;;;;;;28.11;29.54;100998.52;108645;1259;58698;-80
2023/05/23 12:08:42;;;;;;;;;;;;;;;28.04;29.77;100994.54;108678;1259;60440;-79
2023/05/23 12:11:13;;;;;;;;;;;;;;;27.96;29.94;100989.81;108558;1259;124615;-79
2023/05/23 12:13:40;;;;;;;;;;;;;;;27.89;29.96;100992.61;108706;1259;59793;-79
2023/05/23 12:16:07;;;;;;;;;;;;;;;27.76;29.96;100991.54;108627;1258;124458;-79
2023/05/23 12:18:36;;;;;;;;;;;;;;;27.66;30.12;100992.52;108580;1260;58592;-79
2023/05/23 12:21:04;;;;;;;;;;;;;;;27.56;29.95;100991.30;108474;1259;123966;-79
2023/05/23 12:23:31;;;;;;;;;;;;;;;27.45;30.22;100989.09;108656;1274;72174;-79
2023/05/23 12:25:58;;;;;;;;;;;;;;;27.34;30.13;100984.66;108747;1258;65875;-79
2023/05/23 12:28:35;;;;;;;;;;;;;;;27.18;30.34;100986.88;108600;1261;124214;-79
2023/05/23 12:31:11;;;;;;;;;;;;;;;27.06;30.39;100978.76;108642;1274;58882;-79
2023/05/23 12:33:44;;;;;;;;;;;;;;;26.96;30.28;100976.25;108544;1259;123900;-79
2023/05/23 12:36:11;;;;;;;;;;;;;;;26.89;30.52;100974.36;108710;1259;72033;-79